Atlantic Nyala — 9HYD9 — position and weather

sailwx.info

Track history (hours):
 
Tides and Currents Weather Stations Pressure Air Temp Water Temp Dewpoint Dewpoint Depression Visibility Wind Speed Wind Dir Waves Ship Positions

Atlantic Nyala

Last reported at 2014-Nov-23 14:31 UTC. Time now 2014-Nov-23 14:49 UTC.
Position S 29°47' E 031°10'.

Length 173 m; draft 9.4 m.

Type: Ship. MMSI: 249692000.

Date/timePositionNaut miles runAvg speedWind from/ knotsBaromVisibWave heightAir tempDewpointWater temp
2014-Nov-23 14:31S 29°47' E 031°10'0 0.0
2014-Nov-23 13:31S 29°47' E 031°10'0 0.0
2014-Nov-23 12:31S 29°47' E 031°10'0 0.0
2014-Nov-23 11:31S 29°47' E 031°10'0 0.0
2014-Nov-23 10:31S 29°47' E 031°10'0 0.0
2014-Nov-23 09:31S 29°47' E 031°10'0 0.0
2014-Nov-23 08:31S 29°47' E 031°10'0 0.0
2014-Nov-23 07:31S 29°47' E 031°10'0 0.0
2014-Nov-23 06:31S 29°47' E 031°10'0 0.0
2014-Nov-22 12:13S 29°47' E 031°10'0 0.0
2014-Nov-22 11:31S 29°47' E 031°10'0 0.0
2014-Nov-22 10:31S 29°47' E 031°10'0 0.0
2014-Nov-22 09:31S 29°47' E 031°10'0 0.0
2014-Nov-22 08:31S 29°47' E 031°10'0 0.0
2014-Nov-22 07:31S 29°47' E 031°10'0 0.0
2014-Nov-22 06:31S 29°47' E 031°10'0 0.0
2014-Nov-22 05:31S 29°47' E 031°10'0 0.0
2014-Nov-22 04:31S 29°47' E 031°10'2 2.4
2014-Nov-22 03:33S 29°49' E 031°09'7 7.2
2014-Nov-22 02:33S 29°52' E 031°01'1 1.3
2014-Nov-22 01:29S 29°53' E 031°00'0 0.0
2014-Nov-22 00:17S 29°53' E 031°00'0 0.0
2014-Nov-21 23:29S 29°53' E 031°00'0 0.0
2014-Nov-21 22:23S 29°53' E 031°00'0 0.0
2014-Nov-21 21:29S 29°53' E 031°00'0 0.0
2014-Nov-21 20:23S 29°53' E 031°00'0 0.0
2014-Nov-21 19:29S 29°53' E 031°00'0 0.0
2014-Nov-21 18:29S 29°53' E 031°00'0 0.0
2014-Nov-21 17:23S 29°53' E 031°00'0 0.0
2014-Nov-21 15:23S 29°53' E 031°00'0 0.0
2014-Nov-21 14:29S 29°53' E 031°00'0 0.0
2014-Nov-21 13:29S 29°53' E 031°00'0 0.0
2014-Nov-21 12:29S 29°53' E 031°00'0 0.0
2014-Nov-21 11:29S 29°53' E 031°00'1 0.5
2014-Nov-21 10:32S 29°53' E 031°00'6 5.7
2014-Nov-21 09:33S 29°49' E 031°06'1 1.5
2014-Nov-21 08:33S 29°49' E 031°07'0 0.4
2014-Nov-21 07:34S 29°49' E 031°08'1 1.3
2014-Nov-21 06:33S 29°48' E 031°09'2 2.4
2014-Nov-21 05:33S 29°47' E 031°12'0 0.1
2014-Nov-21 04:31S 29°47' E 031°12'0 0.0
2014-Nov-21 03:31S 29°47' E 031°12'0 0.0
2014-Nov-21 02:31S 29°47' E 031°12'0 0.0
2014-Nov-21 01:31S 29°47' E 031°12'0 0.0
2014-Nov-21 00:31S 29°47' E 031°12'0 0.0
2014-Nov-20 23:31S 29°47' E 031°12'0 0.0
2014-Nov-20 22:31S 29°47' E 031°12'0 0.0
2014-Nov-20 21:31S 29°47' E 031°12'0 0.1
2014-Nov-20 20:31S 29°47' E 031°12'0 0.0
2014-Nov-20 19:31S 29°47' E 031°12'0 0.0
2014-Nov-20 18:31S 29°47' E 031°12'0 0.0
2014-Nov-20 17:25S 29°47' E 031°12'0 0.0
2014-Nov-20 16:31S 29°47' E 031°12'0 0.0
2014-Nov-20 15:31S 29°47' E 031°12'0 0.0
2014-Nov-20 14:31S 29°47' E 031°12'0 0.0
2014-Nov-20 13:31S 29°47' E 031°12'0 0.0
2014-Nov-20 12:31S 29°47' E 031°12'0 0.0
2014-Nov-20 11:31S 29°47' E 031°12'0 0.0
2014-Nov-20 10:31S 29°47' E 031°12'0 0.0
2014-Nov-20 09:31S 29°47' E 031°12'0 0.0
2014-Nov-20 08:31S 29°47' E 031°12'0 0.0
2014-Nov-20 07:31S 29°47' E 031°12'0 0.0
2014-Nov-20 06:31S 29°47' E 031°12'0 0.0
2014-Nov-20 05:31S 29°47' E 031°12'0 0.0
2014-Nov-20 04:31S 29°47' E 031°12'0 0.0
2014-Nov-20 03:31S 29°47' E 031°12'0 0.1
2014-Nov-20 02:31S 29°47' E 031°12'0 0.0
2014-Nov-20 01:31S 29°47' E 031°12'0 0.0
2014-Nov-20 00:31S 29°47' E 031°12'0 0.0
2014-Nov-19 23:31S 29°47' E 031°12'0 0.1
2014-Nov-19 22:31S 29°47' E 031°12'0 0.0
2014-Nov-19 21:31S 29°47' E 031°12'0 0.0
2014-Nov-19 20:31S 29°47' E 031°12'0 0.0
2014-Nov-19 19:31S 29°47' E 031°12'0 0.0
2014-Nov-19 18:31S 29°47' E 031°12'0 0.0
2014-Nov-19 17:31S 29°47' E 031°12'0 0.0
2014-Nov-19 16:31S 29°47' E 031°12'0 0.0
2014-Nov-19 15:31S 29°47' E 031°12'0 0.0
2014-Nov-19 14:31S 29°47' E 031°12'0 0.0
2014-Nov-19 13:31S 29°47' E 031°12'0 0.0
2014-Nov-19 12:31S 29°47' E 031°12'0 0.0
2014-Nov-19 11:31S 29°47' E 031°12'0 0.0
2014-Nov-19 10:25S 29°47' E 031°12'0 0.0
2014-Nov-19 09:31S 29°47' E 031°12'0 0.0
2014-Nov-19 08:31S 29°47' E 031°12'0 0.0
2014-Nov-19 07:31S 29°47' E 031°12'0 0.0
2014-Nov-19 06:31S 29°47' E 031°12'0 0.0
2014-Nov-19 05:31S 29°47' E 031°12'0 0.0
2014-Nov-19 04:31S 29°47' E 031°12'0 0.0
2014-Nov-19 03:31S 29°47' E 031°12'0 0.0
2014-Nov-19 02:31S 29°47' E 031°12'0 0.0
2014-Nov-19 01:31S 29°47' E 031°12'0 0.0
2014-Nov-19 00:31S 29°47' E 031°12'0 0.0
2014-Nov-18 23:31S 29°47' E 031°12'0 0.0
2014-Nov-18 22:31S 29°47' E 031°12'0 0.0
2014-Nov-18 21:31S 29°47' E 031°12'0 0.0
2014-Nov-18 20:31S 29°47' E 031°12'0 0.0
2014-Nov-18 19:25S 29°47' E 031°12'0 0.0
2014-Nov-18 18:31S 29°47' E 031°12'0 0.0
2014-Nov-18 17:31S 29°47' E 031°12'0 0.0
2014-Nov-18 16:31S 29°47' E 031°12'0 0.0
2014-Nov-18 15:31S 29°47' E 031°12'0 0.0
2014-Nov-18 14:31S 29°47' E 031°12'0 0.0
2014-Nov-18 13:31S 29°47' E 031°12'0 0.0
2014-Nov-18 12:31S 29°47' E 031°12'0 0.0
2014-Nov-18 11:31S 29°47' E 031°12'0 0.0
2014-Nov-18 10:31S 29°47' E 031°12'0 0.0
2014-Nov-18 09:31S 29°47' E 031°12'0 0.0
2014-Nov-18 08:31S 29°47' E 031°12'0 0.0
2014-Nov-18 07:31S 29°47' E 031°12'0 0.0
2014-Nov-18 06:31S 29°47' E 031°12'0 0.0
2014-Nov-18 05:25S 29°47' E 031°12'0 0.0
2014-Nov-18 04:31S 29°47' E 031°12'0 0.0
2014-Nov-18 03:31S 29°47' E 031°12'0 0.0
2014-Nov-18 02:31S 29°47' E 031°12'0 0.0
2014-Nov-18 01:31S 29°47' E 031°12'0 0.0
2014-Nov-18 00:31S 29°47' E 031°12'0 0.0
2014-Nov-17 23:25S 29°47' E 031°12'0 0.0
2014-Nov-17 22:25S 29°47' E 031°12'0 0.0
2014-Nov-17 21:25S 29°47' E 031°12'0 0.0
2014-Nov-17 20:31S 29°47' E 031°12'0 0.0
2014-Nov-17 19:31S 29°47' E 031°12'0 0.0
2014-Nov-17 18:31S 29°47' E 031°12'0 0.0
2014-Nov-17 17:31S 29°47' E 031°12'0 0.0
2014-Nov-17 16:31S 29°47' E 031°12'0 0.0
2014-Nov-17 15:31S 29°47' E 031°12'0 0.0
2014-Nov-17 14:31S 29°47' E 031°12'0 0.0
2014-Nov-17 13:31S 29°47' E 031°12'0 0.0
2014-Nov-17 12:31S 29°47' E 031°12'0 0.0
2014-Nov-17 11:31S 29°47' E 031°12'0 0.0
2014-Nov-17 10:31S 29°47' E 031°12'0 0.0
2014-Nov-17 09:31S 29°47' E 031°12'0 0.0
2014-Nov-17 08:31S 29°47' E 031°12'0 0.0
2014-Nov-17 07:31S 29°47' E 031°12'0 0.0
2014-Nov-17 06:31S 29°47' E 031°12'0 0.0
2014-Nov-17 05:31S 29°47' E 031°12'0 0.0
2014-Nov-17 04:31S 29°47' E 031°12'0 0.0
2014-Nov-17 03:31S 29°47' E 031°12'0 0.0
2014-Nov-17 02:31S 29°47' E 031°12'0 0.0
2014-Nov-17 01:31S 29°47' E 031°12'0 0.0
2014-Nov-17 00:31S 29°47' E 031°12'0 0.0
2014-Nov-16 23:31S 29°47' E 031°12'0 0.0
2014-Nov-16 22:31S 29°47' E 031°12'0 0.0
2014-Nov-16 21:25S 29°47' E 031°12'0 0.0
2014-Nov-16 20:31S 29°47' E 031°12'0 0.0
2014-Nov-16 19:31S 29°47' E 031°12'0 0.0
2014-Nov-16 18:31S 29°47' E 031°12'0 0.0
2014-Nov-16 17:31S 29°47' E 031°12'0 0.0
2014-Nov-16 16:31S 29°47' E 031°12'0 0.0
2014-Nov-16 15:31S 29°47' E 031°12'0 0.0
2014-Nov-16 14:31S 29°47' E 031°12'0 0.0
2014-Nov-16 13:31S 29°47' E 031°12'0 0.0
2014-Nov-16 12:31S 29°47' E 031°12'0 0.0
2014-Nov-16 11:31S 29°47' E 031°12'0 0.0
2014-Nov-16 10:31S 29°47' E 031°12'0 0.0
2014-Nov-16 09:31S 29°47' E 031°12'0 0.0
2014-Nov-16 08:31S 29°47' E 031°12'0 0.0
2014-Nov-16 07:25S 29°47' E 031°12'0 0.0
2014-Nov-16 06:31S 29°47' E 031°12'0 0.0
2014-Nov-16 05:31S 29°47' E 031°12'0 0.0
2014-Nov-16 04:31S 29°47' E 031°12'0 0.0
2014-Nov-16 03:31S 29°47' E 031°12'0 0.0
2014-Nov-16 02:31S 29°47' E 031°12'0 0.0
2014-Nov-16 01:31S 29°47' E 031°12'0 0.0
2014-Nov-16 00:31S 29°47' E 031°12'0 0.0
2014-Nov-15 23:31S 29°47' E 031°12'0 0.0
2014-Nov-15 22:25S 29°47' E 031°12'0 0.0
2014-Nov-15 21:25S 29°47' E 031°12'0 0.0
2014-Nov-15 20:25S 29°47' E 031°12'0 0.0
2014-Nov-15 19:31S 29°47' E 031°12'0 0.0
2014-Nov-15 18:31S 29°47' E 031°12'0 0.0
2014-Nov-15 17:31S 29°47' E 031°12'0 0.0
2014-Nov-15 16:31S 29°47' E 031°12'0 0.0
2014-Nov-15 15:31S 29°47' E 031°12'0 0.0
2014-Nov-15 14:31S 29°47' E 031°12'0 0.0
2014-Nov-15 13:31S 29°47' E 031°12'0 0.0
2014-Nov-15 12:31S 29°47' E 031°12'0 0.0
2014-Nov-15 11:31S 29°47' E 031°12'0 0.0
2014-Nov-15 10:31S 29°47' E 031°12'0 0.0
2014-Nov-15 09:31S 29°47' E 031°12'0 0.0
2014-Nov-15 08:31S 29°47' E 031°12'0 0.2
2014-Nov-15 07:33S 29°47' E 031°12'4 4.0
2014-Nov-15 06:33S 29°44' E 031°15'1010.1
2014-Nov-15 05:33S 29°37' E 031°23'1313.2
2014-Nov-15 04:33S 29°28' E 031°35'1413.7
2014-Nov-15 03:33S 29°19' E 031°46'  
Track history (hours):
 
Tides and Currents Weather Stations Pressure Air Temp Water Temp Dewpoint Dewpoint Depression Visibility Wind Speed Wind Dir Waves Ship Positions

Atlantic Nyala

Last reported at 2014-Nov-23 14:31 UTC. Time now 2014-Nov-23 14:49 UTC.
Position S 29°47' E 031°10'.

Length 173 m; draft 9.4 m.

Type: Ship. MMSI: 249692000.

Date/timePositionNaut miles runAvg speedWind from/ knotsBaromVisibWave heightAir tempDewpointWater temp
2014-Nov-23 14:31S 29°47' E 031°10'0 0.0
2014-Nov-23 13:31S 29°47' E 031°10'0 0.0
2014-Nov-23 12:31S 29°47' E 031°10'0 0.0
2014-Nov-23 11:31S 29°47' E 031°10'0 0.0
2014-Nov-23 10:31S 29°47' E 031°10'0 0.0
2014-Nov-23 09:31S 29°47' E 031°10'0 0.0
2014-Nov-23 08:31S 29°47' E 031°10'0 0.0
2014-Nov-23 07:31S 29°47' E 031°10'0 0.0
2014-Nov-23 06:31S 29°47' E 031°10'0 0.0
2014-Nov-22 12:13S 29°47' E 031°10'0 0.0
2014-Nov-22 11:31S 29°47' E 031°10'0 0.0
2014-Nov-22 10:31S 29°47' E 031°10'0 0.0
2014-Nov-22 09:31S 29°47' E 031°10'0 0.0
2014-Nov-22 08:31S 29°47' E 031°10'0 0.0
2014-Nov-22 07:31S 29°47' E 031°10'0 0.0
2014-Nov-22 06:31S 29°47' E 031°10'0 0.0
2014-Nov-22 05:31S 29°47' E 031°10'0 0.0
2014-Nov-22 04:31S 29°47' E 031°10'2 2.4
2014-Nov-22 03:33S 29°49' E 031°09'7 7.2
2014-Nov-22 02:33S 29°52' E 031°01'1 1.3
2014-Nov-22 01:29S 29°53' E 031°00'0 0.0
2014-Nov-22 00:17S 29°53' E 031°00'0 0.0
2014-Nov-21 23:29S 29°53' E 031°00'0 0.0
2014-Nov-21 22:23S 29°53' E 031°00'0 0.0
2014-Nov-21 21:29S 29°53' E 031°00'0 0.0
2014-Nov-21 20:23S 29°53' E 031°00'0 0.0
2014-Nov-21 19:29S 29°53' E 031°00'0 0.0
2014-Nov-21 18:29S 29°53' E 031°00'0 0.0
2014-Nov-21 17:23S 29°53' E 031°00'0 0.0
2014-Nov-21 15:23S 29°53' E 031°00'0 0.0
2014-Nov-21 14:29S 29°53' E 031°00'0 0.0
2014-Nov-21 13:29S 29°53' E 031°00'0 0.0
2014-Nov-21 12:29S 29°53' E 031°00'0 0.0
2014-Nov-21 11:29S 29°53' E 031°00'1 0.5
2014-Nov-21 10:32S 29°53' E 031°00'6 5.7
2014-Nov-21 09:33S 29°49' E 031°06'1 1.5
2014-Nov-21 08:33S 29°49' E 031°07'0 0.4
2014-Nov-21 07:34S 29°49' E 031°08'1 1.3
2014-Nov-21 06:33S 29°48' E 031°09'2 2.4
2014-Nov-21 05:33S 29°47' E 031°12'0 0.1
2014-Nov-21 04:31S 29°47' E 031°12'0 0.0
2014-Nov-21 03:31S 29°47' E 031°12'0 0.0
2014-Nov-21 02:31S 29°47' E 031°12'0 0.0
2014-Nov-21 01:31S 29°47' E 031°12'0 0.0
2014-Nov-21 00:31S 29°47' E 031°12'0 0.0
2014-Nov-20 23:31S 29°47' E 031°12'0 0.0
2014-Nov-20 22:31S 29°47' E 031°12'0 0.0
2014-Nov-20 21:31S 29°47' E 031°12'0 0.1
2014-Nov-20 20:31S 29°47' E 031°12'0 0.0
2014-Nov-20 19:31S 29°47' E 031°12'0 0.0
2014-Nov-20 18:31S 29°47' E 031°12'0 0.0
2014-Nov-20 17:25S 29°47' E 031°12'0 0.0
2014-Nov-20 16:31S 29°47' E 031°12'0 0.0
2014-Nov-20 15:31S 29°47' E 031°12'0 0.0
2014-Nov-20 14:31S 29°47' E 031°12'0 0.0
2014-Nov-20 13:31S 29°47' E 031°12'0 0.0
2014-Nov-20 12:31S 29°47' E 031°12'0 0.0
2014-Nov-20 11:31S 29°47' E 031°12'0 0.0
2014-Nov-20 10:31S 29°47' E 031°12'0 0.0
2014-Nov-20 09:31S 29°47' E 031°12'0 0.0
2014-Nov-20 08:31S 29°47' E 031°12'0 0.0
2014-Nov-20 07:31S 29°47' E 031°12'0 0.0
2014-Nov-20 06:31S 29°47' E 031°12'0 0.0
2014-Nov-20 05:31S 29°47' E 031°12'0 0.0
2014-Nov-20 04:31S 29°47' E 031°12'0 0.0
2014-Nov-20 03:31S 29°47' E 031°12'0 0.1
2014-Nov-20 02:31S 29°47' E 031°12'0 0.0
2014-Nov-20 01:31S 29°47' E 031°12'0 0.0
2014-Nov-20 00:31S 29°47' E 031°12'0 0.0
2014-Nov-19 23:31S 29°47' E 031°12'0 0.1
2014-Nov-19 22:31S 29°47' E 031°12'0 0.0
2014-Nov-19 21:31S 29°47' E 031°12'0 0.0
2014-Nov-19 20:31S 29°47' E 031°12'0 0.0
2014-Nov-19 19:31S 29°47' E 031°12'0 0.0
2014-Nov-19 18:31S 29°47' E 031°12'0 0.0
2014-Nov-19 17:31S 29°47' E 031°12'0 0.0
2014-Nov-19 16:31S 29°47' E 031°12'0 0.0
2014-Nov-19 15:31S 29°47' E 031°12'0 0.0
2014-Nov-19 14:31S 29°47' E 031°12'0 0.0
2014-Nov-19 13:31S 29°47' E 031°12'0 0.0
2014-Nov-19 12:31S 29°47' E 031°12'0 0.0
2014-Nov-19 11:31S 29°47' E 031°12'0 0.0
2014-Nov-19 10:25S 29°47' E 031°12'0 0.0
2014-Nov-19 09:31S 29°47' E 031°12'0 0.0
2014-Nov-19 08:31S 29°47' E 031°12'0 0.0
2014-Nov-19 07:31S 29°47' E 031°12'0 0.0
2014-Nov-19 06:31S 29°47' E 031°12'0 0.0
2014-Nov-19 05:31S 29°47' E 031°12'0 0.0
2014-Nov-19 04:31S 29°47' E 031°12'0 0.0
2014-Nov-19 03:31S 29°47' E 031°12'0 0.0
2014-Nov-19 02:31S 29°47' E 031°12'0 0.0
2014-Nov-19 01:31S 29°47' E 031°12'0 0.0
2014-Nov-19 00:31S 29°47' E 031°12'0 0.0
2014-Nov-18 23:31S 29°47' E 031°12'0 0.0
2014-Nov-18 22:31S 29°47' E 031°12'0 0.0
2014-Nov-18 21:31S 29°47' E 031°12'0 0.0
2014-Nov-18 20:31S 29°47' E 031°12'0 0.0
2014-Nov-18 19:25S 29°47' E 031°12'0 0.0
2014-Nov-18 18:31S 29°47' E 031°12'0 0.0
2014-Nov-18 17:31S 29°47' E 031°12'0 0.0
2014-Nov-18 16:31S 29°47' E 031°12'0 0.0
2014-Nov-18 15:31S 29°47' E 031°12'0 0.0
2014-Nov-18 14:31S 29°47' E 031°12'0 0.0
2014-Nov-18 13:31S 29°47' E 031°12'0 0.0
2014-Nov-18 12:31S 29°47' E 031°12'0 0.0
2014-Nov-18 11:31S 29°47' E 031°12'0 0.0
2014-Nov-18 10:31S 29°47' E 031°12'0 0.0
2014-Nov-18 09:31S 29°47' E 031°12'0 0.0
2014-Nov-18 08:31S 29°47' E 031°12'0 0.0
2014-Nov-18 07:31S 29°47' E 031°12'0 0.0
2014-Nov-18 06:31S 29°47' E 031°12'0 0.0
2014-Nov-18 05:25S 29°47' E 031°12'0 0.0
2014-Nov-18 04:31S 29°47' E 031°12'0 0.0
2014-Nov-18 03:31S 29°47' E 031°12'0 0.0
2014-Nov-18 02:31S 29°47' E 031°12'0 0.0
2014-Nov-18 01:31S 29°47' E 031°12'0 0.0
2014-Nov-18 00:31S 29°47' E 031°12'0 0.0
2014-Nov-17 23:25S 29°47' E 031°12'0 0.0
2014-Nov-17 22:25S 29°47' E 031°12'0 0.0
2014-Nov-17 21:25S 29°47' E 031°12'0 0.0
2014-Nov-17 20:31S 29°47' E 031°12'0 0.0
2014-Nov-17 19:31S 29°47' E 031°12'0 0.0
2014-Nov-17 18:31S 29°47' E 031°12'0 0.0
2014-Nov-17 17:31S 29°47' E 031°12'0 0.0
2014-Nov-17 16:31S 29°47' E 031°12'0 0.0
2014-Nov-17 15:31S 29°47' E 031°12'0 0.0
2014-Nov-17 14:31S 29°47' E 031°12'0 0.0
2014-Nov-17 13:31S 29°47' E 031°12'0 0.0
2014-Nov-17 12:31S 29°47' E 031°12'0 0.0
2014-Nov-17 11:31S 29°47' E 031°12'0 0.0
2014-Nov-17 10:31S 29°47' E 031°12'0 0.0
2014-Nov-17 09:31S 29°47' E 031°12'0 0.0
2014-Nov-17 08:31S 29°47' E 031°12'0 0.0
2014-Nov-17 07:31S 29°47' E 031°12'0 0.0
2014-Nov-17 06:31S 29°47' E 031°12'0 0.0
2014-Nov-17 05:31S 29°47' E 031°12'0 0.0
2014-Nov-17 04:31S 29°47' E 031°12'0 0.0
2014-Nov-17 03:31S 29°47' E 031°12'0 0.0
2014-Nov-17 02:31S 29°47' E 031°12'0 0.0
2014-Nov-17 01:31S 29°47' E 031°12'0 0.0
2014-Nov-17 00:31S 29°47' E 031°12'0 0.0
2014-Nov-16 23:31S 29°47' E 031°12'0 0.0
2014-Nov-16 22:31S 29°47' E 031°12'0 0.0
2014-Nov-16 21:25S 29°47' E 031°12'0 0.0
2014-Nov-16 20:31S 29°47' E 031°12'0 0.0
2014-Nov-16 19:31S 29°47' E 031°12'0 0.0
2014-Nov-16 18:31S 29°47' E 031°12'0 0.0
2014-Nov-16 17:31S 29°47' E 031°12'0 0.0
2014-Nov-16 16:31S 29°47' E 031°12'0 0.0
2014-Nov-16 15:31S 29°47' E 031°12'0 0.0
2014-Nov-16 14:31S 29°47' E 031°12'0 0.0
2014-Nov-16 13:31S 29°47' E 031°12'0 0.0
2014-Nov-16 12:31S 29°47' E 031°12'0 0.0
2014-Nov-16 11:31S 29°47' E 031°12'0 0.0
2014-Nov-16 10:31S 29°47' E 031°12'0 0.0
2014-Nov-16 09:31S 29°47' E 031°12'0 0.0
2014-Nov-16 08:31S 29°47' E 031°12'0 0.0
2014-Nov-16 07:25S 29°47' E 031°12'0 0.0
2014-Nov-16 06:31S 29°47' E 031°12'0 0.0
2014-Nov-16 05:31S 29°47' E 031°12'0 0.0
2014-Nov-16 04:31S 29°47' E 031°12'0 0.0
2014-Nov-16 03:31S 29°47' E 031°12'0 0.0
2014-Nov-16 02:31S 29°47' E 031°12'0 0.0
2014-Nov-16 01:31S 29°47' E 031°12'0 0.0
2014-Nov-16 00:31S 29°47' E 031°12'0 0.0
2014-Nov-15 23:31S 29°47' E 031°12'0 0.0
2014-Nov-15 22:25S 29°47' E 031°12'0 0.0
2014-Nov-15 21:25S 29°47' E 031°12'0 0.0
2014-Nov-15 20:25S 29°47' E 031°12'0 0.0
2014-Nov-15 19:31S 29°47' E 031°12'0 0.0
2014-Nov-15 18:31S 29°47' E 031°12'0 0.0
2014-Nov-15 17:31S 29°47' E 031°12'0 0.0
2014-Nov-15 16:31S 29°47' E 031°12'0 0.0
2014-Nov-15 15:31S 29°47' E 031°12'0 0.0
2014-Nov-15 14:31S 29°47' E 031°12'0 0.0
2014-Nov-15 13:31S 29°47' E 031°12'0 0.0
2014-Nov-15 12:31S 29°47' E 031°12'0 0.0
2014-Nov-15 11:31S 29°47' E 031°12'0 0.0
2014-Nov-15 10:31S 29°47' E 031°12'0 0.0
2014-Nov-15 09:31S 29°47' E 031°12'0 0.0
2014-Nov-15 08:31S 29°47' E 031°12'0 0.2
2014-Nov-15 07:33S 29°47' E 031°12'4 4.0
2014-Nov-15 06:33S 29°44' E 031°15'1010.1
2014-Nov-15 05:33S 29°37' E 031°23'1313.2
2014-Nov-15 04:33S 29°28' E 031°35'1413.7
2014-Nov-15 03:33S 29°19' E 031°46'  

Dump ship's entire track history